Time;durP1;ratioP1;P1;durP2;ratioP2;P2;SDS_P1;SDS_P2;PMS_P1;PMS_P2;Temp;Humidity;BMP_temperature;BMP_pressure;BME280_temperature;BME280_humidity;BME280_pressure;Samples;Min_cycle;Max_cycle;Signal;HPM_P1;HPM_P2
2021/12/03 00:00:49;;;;;;;6.32;1.80;;;;;;;;;;4996746;28;20038;-68
2021/12/03 00:03:17;;;;;;;9.75;2.28;;;;;;;;;;4996738;28;20022;-68
2021/12/03 00:05:45;;;;;;;9.13;1.30;;;;;;;;;;4980321;28;20418;-68
2021/12/03 00:08:12;;;;;;;4.90;1.25;;;;;;;;;;4996811;28;20339;-68
2021/12/03 00:10:40;;;;;;;8.55;2.65;;;;;;;;;;4980268;28;20122;-68
2021/12/03 00:13:08;;;;;;;8.60;3.45;;;;;;;;;;4996847;28;20435;-68
2021/12/03 00:15:36;;;;;;;15.75;5.53;;;;;;;;;;4996514;28;20497;-70
2021/12/03 00:18:04;;;;;;;4.85;1.38;;;;;;;;;;5018541;28;20052;-70
2021/12/03 00:20:36;;;;;;;3.67;0.88;;;;;;;;;;5023373;28;20057;-69
2021/12/03 00:23:04;;;;;;;3.70;0.77;;;;;;;;;;5037991;28;20033;-69
2021/12/03 00:25:31;;;;;;;4.15;0.60;;;;;;;;;;5037447;28;20082;-69
2021/12/03 00:27:59;;;;;;;6.30;1.35;;;;;;;;;;5037434;28;20025;-69
2021/12/03 00:30:26;;;;;;;7.22;0.93;;;;;;;;;;5020015;28;20422;-68
2021/12/03 00:32:54;;;;;;;4.50;0.88;;;;;;;;;;5037472;28;20034;-69
2021/12/03 00:35:23;;;;;;;12.73;4.85;;;;;;;;;;5019865;28;20030;-69
2021/12/03 00:37:51;;;;;;;7.30;2.25;;;;;;;;;;4995789;28;20144;-69
2021/12/03 00:40:22;;;;;;;8.95;1.63;;;;;;;;;;4979526;28;20054;-69
2021/12/03 00:42:50;;;;;;;4.95;1.25;;;;;;;;;;4996028;28;20450;-69
2021/12/03 00:45:17;;;;;;;6.60;1.50;;;;;;;;;;4996102;28;20379;-69
2021/12/03 00:47:46;;;;;;;3.25;0.93;;;;;;;;;;4981119;28;20022;-70
2021/12/03 00:50:17;;;;;;;5.70;1.35;;;;;;;;;;4981999;28;20126;-70
2021/12/03 00:52:45;;;;;;;10.10;1.30;;;;;;;;;;4997496;28;20036;-70
2021/12/03 00:55:12;;;;;;;8.60;1.50;;;;;;;;;;4997297;28;20096;-69
2021/12/03 00:57:39;;;;;;;7.43;2.00;;;;;;;;;;4996400;28;20050;-70
2021/12/03 01:00:08;;;;;;;7.63;1.77;;;;;;;;;;4995897;28;20121;-70
2021/12/03 01:02:35;;;;;;;12.20;5.03;;;;;;;;;;4995778;28;20045;-70
2021/12/03 01:05:04;;;;;;;14.98;4.53;;;;;;;;;;4979250;28;20056;-70
2021/12/03 01:07:34;;;;;;;8.75;3.83;;;;;;;;;;4995373;28;20487;-71
2021/12/03 01:10:02;;;;;;;14.65;3.60;;;;;;;;;;4995540;28;20030;-70
2021/12/03 01:12:30;;;;;;;15.82;4.05;;;;;;;;;;4995479;28;20026;-70
2021/12/03 01:14:57;;;;;;;16.15;4.32;;;;;;;;;;4979109;28;20026;-70
2021/12/03 01:17:25;;;;;;;7.82;2.78;;;;;;;;;;4979071;28;20042;-70
2021/12/03 01:19:53;;;;;;;6.55;2.38;;;;;;;;;;4979007;28;20065;-70
2021/12/03 01:22:21;;;;;;;12.85;2.78;;;;;;;;;;4995229;28;20030;-70
2021/12/03 01:24:49;;;;;;;10.55;2.30;;;;;;;;;;4994986;28;20459;-70
2021/12/03 01:27:16;;;;;;;11.38;2.58;;;;;;;;;;4981754;28;20100;-70
2021/12/03 01:29:44;;;;;;;13.55;3.20;;;;;;;;;;5016526;28;20500;-70
2021/12/03 01:32:11;;;;;;;15.77;3.95;;;;;;;;;;5016321;28;20029;-70
2021/12/03 01:34:39;;;;;;;15.63;3.08;;;;;;;;;;5015144;28;20087;-71
2021/12/03 01:37:06;;;;;;;19.33;2.88;;;;;;;;;;5015087;28;20373;-70
2021/12/03 01:39:34;;;;;;;14.32;2.63;;;;;;;;;;5015191;28;20033;-70
2021/12/03 01:42:02;;;;;;;13.15;2.80;;;;;;;;;;5014708;28;20026;-73
2021/12/03 01:44:29;;;;;;;20.48;3.90;;;;;;;;;;5016125;28;20091;-74
2021/12/03 01:46:57;;;;;;;16.50;6.10;;;;;;;;;;5015120;28;20054;-70
2021/12/03 01:49:25;;;;;;;15.85;3.40;;;;;;;;;;5015597;28;20382;-72
2021/12/03 01:51:52;;;;;;;14.95;3.10;;;;;;;;;;5016226;28;20022;-72
2021/12/03 01:54:20;;;;;;;13.00;3.22;;;;;;;;;;5014961;28;20030;-72
2021/12/03 01:56:49;;;;;;;25.30;3.90;;;;;;;;;;5018174;28;20103;-76
2021/12/03 01:59:17;;;;;;;8.60;2.35;;;;;;;;;;5033587;28;20040;-74
2021/12/03 02:01:45;;;;;;;13.25;3.03;;;;;;;;;;5017955;28;20434;-76
2021/12/03 02:04:13;;;;;;;19.25;3.30;;;;;;;;;;5035516;28;20100;-76
2021/12/03 02:06:40;;;;;;;22.70;3.90;;;;;;;;;;5035493;28;20410;-69
2021/12/03 02:09:08;;;;;;;17.00;3.53;;;;;;;;;;5035358;28;20030;-69
2021/12/03 02:11:36;;;;;;;10.23;2.70;;;;;;;;;;5018038;28;20021;-71
2021/12/03 02:14:03;;;;;;;9.30;2.63;;;;;;;;;;5035722;28;20028;-72
2021/12/03 02:16:30;;;;;;;12.75;3.15;;;;;;;;;;5035786;28;20029;-69
2021/12/03 02:18:58;;;;;;;13.57;4.05;;;;;;;;;;5035555;28;20076;-70
2021/12/03 02:21:26;;;;;;;10.55;3.35;;;;;;;;;;5035375;28;20025;-70
2021/12/03 02:23:53;;;;;;;10.73;2.72;;;;;;;;;;5035512;28;20431;-70
2021/12/03 02:26:21;;;;;;;20.90;3.22;;;;;;;;;;5035591;28;20062;-69
2021/12/03 02:28:49;;;;;;;13.02;3.80;;;;;;;;;;5035362;28;20409;-70
2021/12/03 02:31:18;;;;;;;29.02;5.05;;;;;;;;;;5035347;28;20075;-70
2021/12/03 02:33:47;;;;;;;18.73;3.85;;;;;;;;;;5035510;28;20022;-69
2021/12/03 02:36:14;;;;;;;21.98;5.28;;;;;;;;;;5017793;28;20044;-70
2021/12/03 02:38:42;;;;;;;24.67;6.93;;;;;;;;;;5035446;28;20033;-69
2021/12/03 02:41:10;;;;;;;28.08;9.13;;;;;;;;;;5035293;28;20418;-70
2021/12/03 02:43:38;;;;;;;37.78;14.13;;;;;;;;;;5035204;28;20079;-66
2021/12/03 02:46:06;;;;;;;23.27;7.38;;;;;;;;;;5035230;28;20026;-76
2021/12/03 02:48:35;;;;;;;32.90;10.55;;;;;;;;;;5035480;28;20418;-73
2021/12/03 02:51:03;;;;;;;26.98;12.07;;;;;;;;;;5035472;28;20046;-72
2021/12/03 02:53:31;;;;;;;28.38;13.32;;;;;;;;;;5035511;28;20070;-73
2021/12/03 02:55:58;;;;;;;20.52;8.20;;;;;;;;;;5034951;28;20329;-74
2021/12/03 02:58:25;;;;;;;13.77;5.60;;;;;;;;;;5035077;28;20049;-67
2021/12/03 03:00:53;;;;;;;15.57;4.35;;;;;;;;;;5019444;28;20330;-68
2021/12/03 03:03:21;;;;;;;13.98;3.67;;;;;;;;;;5038927;28;20025;-70
2021/12/03 03:05:59;;;;;;;16.88;3.80;;;;;;;;;;5038706;28;20099;-69
2021/12/03 03:08:27;;;;;;;10.93;3.70;;;;;;;;;;5038819;28;20018;-67
2021/12/03 03:10:55;;;;;;;23.35;5.80;;;;;;;;;;5038664;28;20051;-69
2021/12/03 03:13:23;;;;;;;16.42;3.53;;;;;;;;;;5038692;28;20079;-69
2021/12/03 03:15:52;;;;;;;11.05;3.28;;;;;;;;;;5021300;28;20342;-77
2021/12/03 03:18:21;;;;;;;13.15;3.47;;;;;;;;;;5021201;28;20108;-67
2021/12/03 03:20:49;;;;;;;19.70;4.28;;;;;;;;;;5038581;28;20033;-68
2021/12/03 03:23:18;;;;;;;7.85;2.78;;;;;;;;;;5038348;28;20029;-69
2021/12/03 03:25:46;;;;;;;23.70;10.82;;;;;;;;;;5038279;28;20025;-69
2021/12/03 03:28:14;;;;;;;19.25;8.52;;;;;;;;;;5038524;28;20480;-70
2021/12/03 03:30:43;;;;;;;27.40;10.40;;;;;;;;;;5038547;28;20295;-68
2021/12/03 03:33:10;;;;;;;37.42;12.50;;;;;;;;;;5020408;28;20303;-66
2021/12/03 03:35:38;;;;;;;40.75;15.80;;;;;;;;;;5020535;28;20032;-66
2021/12/03 03:38:09;;;;;;;56.28;15.13;;;;;;;;;;5018570;28;20041;-67
2021/12/03 03:40:38;;;;;;;44.75;15.93;;;;;;;;;;5038216;28;20095;-69
2021/12/03 03:43:06;;;;;;;54.00;20.70;;;;;;;;;;5057965;28;20025;-67
2021/12/03 03:45:34;;;;;;;53.47;15.40;;;;;;;;;;5042837;28;20036;-68
2021/12/03 03:48:03;;;;;;;65.45;16.83;;;;;;;;;;5020421;28;20517;-68
2021/12/03 03:50:30;;;;;;;142.63;49.65;;;;;;;;;;5037908;28;20029;-68
2021/12/03 03:52:58;;;;;;;161.77;72.07;;;;;;;;;;5037890;28;20036;-70
2021/12/03 03:55:26;;;;;;;147.30;56.13;;;;;;;;;;5037357;28;20048;-69
2021/12/03 03:57:54;;;;;;;205.40;85.90;;;;;;;;;;5037241;28;20041;-72
2021/12/03 04:00:25;;;;;;;162.65;64.53;;;;;;;;;;5019734;28;20026;-71
2021/12/03 04:02:52;;;;;;;154.07;67.25;;;;;;;;;;5037694;28;20025;-70
2021/12/03 04:05:20;;;;;;;144.07;66.00;;;;;;;;;;5038065;28;20059;-70
2021/12/03 04:07:48;;;;;;;144.35;65.88;;;;;;;;;;5038640;28;20406;-68
2021/12/03 04:10:15;;;;;;;128.57;55.80;;;;;;;;;;5034343;28;20026;-68
2021/12/03 04:12:44;;;;;;;127.88;53.63;;;;;;;;;;5036406;28;20319;-68
2021/12/03 04:15:12;;;;;;;113.25;41.97;;;;;;;;;;5036037;28;20026;-69
2021/12/03 04:17:41;;;;;;;99.20;38.40;;;;;;;;;;5036237;28;20025;-66
2021/12/03 04:20:12;;;;;;;101.43;33.58;;;;;;;;;;5035947;28;20109;-69
2021/12/03 04:22:39;;;;;;;87.75;32.13;;;;;;;;;;5037095;28;20053;-69
2021/12/03 04:25:11;;;;;;;71.03;30.88;;;;;;;;;;5037194;28;20100;-73
2021/12/03 04:27:38;;;;;;;59.45;24.65;;;;;;;;;;5037287;28;20101;-72
2021/12/03 04:30:08;;;;;;;73.78;30.50;;;;;;;;;;5031380;28;20104;-68
2021/12/03 04:32:35;;;;;;;62.20;23.90;;;;;;;;;;5006777;28;20018;-69
2021/12/03 04:35:03;;;;;;;51.25;18.88;;;;;;;;;;5008413;28;20022;-71
2021/12/03 04:37:31;;;;;;;43.40;16.77;;;;;;;;;;5014022;28;20029;-68
2021/12/03 04:39:58;;;;;;;48.55;16.85;;;;;;;;;;5019188;28;20029;-72
2021/12/03 04:42:26;;;;;;;44.90;17.63;;;;;;;;;;5030084;28;20030;-69
2021/12/03 04:44:53;;;;;;;45.20;20.13;;;;;;;;;;5032648;28;20028;-70
2021/12/03 04:47:23;;;;;;;42.55;15.77;;;;;;;;;;5029781;28;20029;-74
2021/12/03 04:49:51;;;;;;;32.42;14.25;;;;;;;;;;5015292;28;20079;-70
2021/12/03 04:52:18;;;;;;;23.13;11.55;;;;;;;;;;5036032;28;20097;-74
2021/12/03 04:54:46;;;;;;;25.42;11.45;;;;;;;;;;5036187;28;20033;-72
2021/12/03 04:57:19;;;;;;;23.25;11.30;;;;;;;;;;5015574;28;20442;-69
2021/12/03 04:59:46;;;;;;;25.55;13.68;;;;;;;;;;5007519;28;20029;-68
2021/12/03 05:02:14;;;;;;;43.22;17.67;;;;;;;;;;5024273;28;20088;-69
2021/12/03 05:04:41;;;;;;;45.58;21.83;;;;;;;;;;5023752;28;20014;-67
2021/12/03 05:09:37;;;;;;;52.97;25.45;;;;;;;;;;5026737;28;20021;-69
2021/12/03 05:12:05;;;;;;;52.35;22.17;;;;;;;;;;5031212;28;20053;-69
2021/12/03 05:14:33;;;;;;;64.43;26.90;;;;;;;;;;5018540;28;20034;-67
2021/12/03 05:17:00;;;;;;;66.57;33.47;;;;;;;;;;5016274;28;20053;-68
2021/12/03 05:19:28;;;;;;;51.72;25.27;;;;;;;;;;5016226;28;20060;-68
2021/12/03 05:21:55;;;;;;;43.53;21.10;;;;;;;;;;5016173;28;20034;-69
2021/12/03 05:24:23;;;;;;;51.15;25.52;;;;;;;;;;5017109;28;20112;-69
2021/12/03 05:26:51;;;;;;;52.90;25.45;;;;;;;;;;5015014;28;20462;-67
2021/12/03 05:29:18;;;;;;;55.40;21.80;;;;;;;;;;5023717;28;20415;-69
2021/12/03 05:31:46;;;;;;;79.63;26.92;;;;;;;;;;5016818;28;20026;-69
2021/12/03 05:34:15;;;;;;;113.10;42.53;;;;;;;;;;5025954;28;20026;-69
2021/12/03 05:36:43;;;;;;;104.43;39.97;;;;;;;;;;5030652;28;20025;-69
2021/12/03 05:39:10;;;;;;;92.93;36.28;;;;;;;;;;5034937;28;20025;-67
2021/12/03 05:41:37;;;;;;;81.30;34.05;;;;;;;;;;5035579;28;20029;-69
2021/12/03 05:44:06;;;;;;;81.47;34.17;;;;;;;;;;5035123;28;20414;-69
2021/12/03 05:46:34;;;;;;;79.93;33.90;;;;;;;;;;5035234;28;20323;-69
2021/12/03 05:49:01;;;;;;;83.20;35.13;;;;;;;;;;5014058;28;20132;-68
2021/12/03 05:51:30;;;;;;;84.55;33.63;;;;;;;;;;5035088;28;20026;-68
2021/12/03 05:53:57;;;;;;;72.95;31.42;;;;;;;;;;5035332;28;20029;-68
2021/12/03 05:56:25;;;;;;;60.00;25.33;;;;;;;;;;5034351;28;20029;-67
2021/12/03 05:58:53;;;;;;;48.40;22.52;;;;;;;;;;5033669;28;20065;-68
2021/12/03 06:01:21;;;;;;;60.55;21.70;;;;;;;;;;5033674;28;20022;-69
2021/12/03 06:03:48;;;;;;;44.28;18.85;;;;;;;;;;5025145;28;20018;-67
2021/12/03 06:06:16;;;;;;;40.47;17.15;;;;;;;;;;5020535;28;20026;-68
2021/12/03 06:08:44;;;;;;;47.05;18.48;;;;;;;;;;5015323;28;20032;-68
2021/12/03 06:11:12;;;;;;;57.20;22.02;;;;;;;;;;5017483;28;20022;-67
2021/12/03 06:13:40;;;;;;;38.53;15.95;;;;;;;;;;5017304;28;20025;-68
2021/12/03 06:16:07;;;;;;;35.67;15.55;;;;;;;;;;5030934;28;20119;-67
2021/12/03 06:18:35;;;;;;;39.97;16.58;;;;;;;;;;5026618;28;20032;-68
2021/12/03 06:21:05;;;;;;;28.63;10.88;;;;;;;;;;5024458;28;20088;-68
2021/12/03 06:23:33;;;;;;;35.70;11.80;;;;;;;;;;5034914;28;20017;-68
2021/12/03 06:26:01;;;;;;;38.45;11.35;;;;;;;;;;5034876;28;20036;-68
2021/12/03 06:28:29;;;;;;;38.85;13.15;;;;;;;;;;5034916;28;20017;-67
2021/12/03 06:30:58;;;;;;;38.63;13.40;;;;;;;;;;5016921;28;20112;-68
2021/12/03 06:33:25;;;;;;;39.53;13.93;;;;;;;;;;5016519;28;20083;-69
2021/12/03 06:35:53;;;;;;;46.63;19.27;;;;;;;;;;5036937;28;20033;-69
2021/12/03 06:38:21;;;;;;;52.58;19.58;;;;;;;;;;5037798;28;20318;-66
2021/12/03 06:40:51;;;;;;;83.35;29.55;;;;;;;;;;5028170;28;20100;-67
2021/12/03 06:43:19;;;;;;;89.63;35.15;;;;;;;;;;5009686;28;20022;-69
2021/12/03 06:45:47;;;;;;;74.47;30.65;;;;;;;;;;5028592;28;20025;-68
2021/12/03 06:48:15;;;;;;;44.35;21.38;;;;;;;;;;5029214;28;20106;-69
2021/12/03 06:50:44;;;;;;;57.83;24.67;;;;;;;;;;5027432;28;20024;-69
2021/12/03 06:53:14;;;;;;;58.88;22.02;;;;;;;;;;5012597;28;20076;-68
2021/12/03 06:55:57;;;;;;;65.32;26.60;;;;;;;;;;5027173;28;20060;-68
2021/12/03 06:58:23;;;;;;;62.70;25.23;;;;;;;;;;5027561;28;20065;-69
2021/12/03 07:00:51;;;;;;;70.32;30.35;;;;;;;;;;5027763;28;20032;-69
2021/12/03 07:03:19;;;;;;;67.57;31.50;;;;;;;;;;5029198;28;20048;-68
2021/12/03 07:05:47;;;;;;;74.03;34.35;;;;;;;;;;5010351;28;20032;-70
2021/12/03 07:08:14;;;;;;;78.07;32.50;;;;;;;;;;5027267;28;20026;-67
2021/12/03 07:10:42;;;;;;;69.30;30.23;;;;;;;;;;5027321;28;20014;-68
2021/12/03 07:13:10;;;;;;;65.22;28.88;;;;;;;;;;5027879;28;20532;-70
2021/12/03 07:15:38;;;;;;;54.42;25.90;;;;;;;;;;5003108;28;20042;-70
2021/12/03 07:18:06;;;;;;;65.47;27.08;;;;;;;;;;5029444;28;20144;-70
2021/12/03 07:20:33;;;;;;;37.83;17.50;;;;;;;;;;5038108;28;20032;-70
2021/12/03 07:23:01;;;;;;;34.53;13.82;;;;;;;;;;5037853;28;20030;-75
2021/12/03 07:25:29;;;;;;;34.03;12.63;;;;;;;;;;5018232;28;20030;-68
2021/12/03 07:27:57;;;;;;;33.30;11.45;;;;;;;;;;5020599;28;20113;-70
2021/12/03 07:30:30;;;;;;;27.98;9.63;;;;;;;;;;5033090;28;20014;-73
2021/12/03 07:32:58;;;;;;;26.48;9.60;;;;;;;;;;5018335;28;20415;-69
2021/12/03 07:35:39;;;;;;;26.45;9.63;;;;;;;;;;5042991;28;20017;-70
2021/12/03 07:38:08;;;;;;;24.35;8.93;;;;;;;;;;5038359;28;20545;-68
2021/12/03 07:40:37;;;;;;;27.27;9.32;;;;;;;;;;5023237;28;20029;-69
2021/12/03 07:43:05;;;;;;;25.85;10.07;;;;;;;;;;5036696;28;20555;-69
2021/12/03 07:45:33;;;;;;;26.65;8.23;;;;;;;;;;5040270;28;20407;-75
2021/12/03 07:48:01;;;;;;;17.95;6.53;;;;;;;;;;5038528;28;20075;-74
2021/12/03 07:50:29;;;;;;;15.80;6.25;;;;;;;;;;5022022;28;20020;-66
2021/12/03 07:52:56;;;;;;;21.95;6.53;;;;;;;;;;5022151;28;20021;-69
2021/12/03 07:55:24;;;;;;;28.45;7.18;;;;;;;;;;5039679;28;20033;-70
2021/12/03 07:57:52;;;;;;;21.02;7.68;;;;;;;;;;5040166;28;20042;-72
2021/12/03 08:00:20;;;;;;;26.15;7.85;;;;;;;;;;5039140;28;20021;-69
2021/12/03 08:02:49;;;;;;;25.58;8.27;;;;;;;;;;5038464;28;20021;-69
2021/12/03 08:05:17;;;;;;;22.35;7.80;;;;;;;;;;5039044;28;20026;-68
2021/12/03 08:07:49;;;;;;;33.10;10.00;;;;;;;;;;5040114;28;20433;-69
2021/12/03 08:10:17;;;;;;;38.22;12.18;;;;;;;;;;5047345;28;20729;-70
2021/12/03 08:12:46;;;;;;;37.03;11.40;;;;;;;;;;5039974;28;20091;-68
2021/12/03 08:15:16;;;;;;;38.92;11.27;;;;;;;;;;5038371;28;20055;-69
2021/12/03 08:17:49;;;;;;;33.67;11.23;;;;;;;;;;5041741;28;20084;-69
2021/12/03 08:20:17;;;;;;;32.08;11.00;;;;;;;;;;5041496;28;20030;-69
2021/12/03 08:22:45;;;;;;;39.58;15.45;;;;;;;;;;5042386;28;20045;-68
2021/12/03 08:25:13;;;;;;;34.45;13.13;;;;;;;;;;5011964;28;20061;-69
2021/12/03 08:27:42;;;;;;;39.47;13.70;;;;;;;;;;5036974;28;20356;-69
2021/12/03 08:30:11;;;;;;;47.15;14.98;;;;;;;;;;5036102;28;20022;-67
2021/12/03 08:32:42;;;;;;;57.08;17.05;;;;;;;;;;5040798;28;20018;-68
2021/12/03 08:35:14;;;;;;;60.33;17.88;;;;;;;;;;5030229;28;20029;-69
2021/12/03 08:37:55;;;;;;;75.35;18.85;;;;;;;;;;5020859;28;20342;-68
2021/12/03 08:40:24;;;;;;;38.92;13.10;;;;;;;;;;5028644;28;20038;-69
2021/12/03 08:42:54;;;;;;;36.03;12.27;;;;;;;;;;5028089;28;20029;-69
2021/12/03 08:45:22;;;;;;;35.00;12.43;;;;;;;;;;5042397;28;20033;-69
2021/12/03 08:47:54;;;;;;;35.15;12.50;;;;;;;;;;5038966;28;20029;-67
2021/12/03 08:50:29;;;;;;;43.53;15.38;;;;;;;;;;5040730;28;20018;-67
2021/12/03 08:55:38;;;;;;;34.38;13.50;;;;;;;;;;5040368;28;20112;-63
2021/12/03 08:58:04;;;;;;;34.90;13.75;;;;;;;;;;5039890;28;20053;-68
2021/12/03 09:00:33;;;;;;;34.22;14.98;;;;;;;;;;5040551;28;20025;-67
2021/12/03 09:03:01;;;;;;;41.45;14.30;;;;;;;;;;5040164;28;20025;-67
2021/12/03 09:05:31;;;;;;;48.88;15.45;;;;;;;;;;5038043;28;20032;-67
2021/12/03 09:08:00;;;;;;;52.08;16.23;;;;;;;;;;5040203;28;20113;-66
2021/12/03 09:10:28;;;;;;;46.70;16.02;;;;;;;;;;5022951;28;20326;-71
2021/12/03 09:13:00;;;;;;;41.38;16.95;;;;;;;;;;5041716;28;20033;-72
2021/12/03 09:15:54;;;;;;;60.55;17.75;;;;;;;;;;5034326;28;20077;-66
2021/12/03 09:18:31;;;;;;;43.88;18.92;;;;;;;;;;5017670;28;20415;-68
2021/12/03 09:23:44;;;;;;;50.05;18.75;;;;;;;;;;5028944;28;20438;-67
2021/12/03 09:26:14;;;;;;;56.88;20.20;;;;;;;;;;5037204;28;20026;-66
2021/12/03 09:28:44;;;;;;;61.10;19.67;;;;;;;;;;5020001;28;20414;-66
2021/12/03 09:31:12;;;;;;;52.92;19.10;;;;;;;;;;5019254;28;20033;-66
2021/12/03 09:33:42;;;;;;;47.50;18.35;;;;;;;;;;4979101;28;20077;-65
2021/12/03 09:36:15;;;;;;;56.78;18.75;;;;;;;;;;4986271;28;20030;-67
2021/12/03 09:38:44;;;;;;;50.95;16.88;;;;;;;;;;5004742;28;20046;-66
2021/12/03 09:41:28;;;;;;;49.92;16.48;;;;;;;;;;4991991;28;20434;-68
2021/12/03 09:44:16;;;;;;;49.00;16.65;;;;;;;;;;4968146;29;20039;-66
2021/12/03 09:46:53;;;;;;;43.65;16.60;;;;;;;;;;4953029;29;20028;-68
2021/12/03 09:54:29;;;;;;;55.13;18.13;;;;;;;;;;4936694;29;20053;-67
2021/12/03 09:57:01;;;;;;;56.80;19.67;;;;;;;;;;4936997;29;20105;-66
2021/12/03 10:05:01;;;;;;;40.00;15.77;;;;;;;;;;4933959;29;20040;-67
2021/12/03 10:19:02;;;;;;;93.30;41.17;;;;;;;;;;4898108;29;20029;-68
2021/12/03 10:27:49;;;;;;;171.57;80.82;;;;;;;;;;4917185;29;20538;-69
2021/12/03 10:36:18;;;;;;;154.95;59.17;;;;;;;;;;4944073;29;20028;-70
2021/12/03 10:41:36;;;;;;;116.40;51.88;;;;;;;;;;4955190;29;20032;-70
2021/12/03 10:49:29;;;;;;;101.15;44.67;;;;;;;;;;4970279;28;20371;-75
2021/12/03 11:28:07;;;;;;;72.32;22.42;;;;;;;;;;4977993;28;20030;-71
2021/12/03 11:30:40;;;;;;;69.65;23.63;;;;;;;;;;4977787;28;20023;-71
2021/12/03 14:40:52;;;;;;;94.93;45.05;;;;;;;;;;5095789;28;20031;-69
2021/12/03 14:43:35;;;;;;;104.40;42.33;;;;;;;;;;5095735;28;20111;-69
2021/12/03 14:46:49;;;;;;;100.05;42.00;;;;;;;;;;5095625;28;20099;-68
2021/12/03 14:54:46;;;;;;;131.15;56.28;;;;;;;;;;5053436;28;20025;-69
2021/12/03 14:57:19;;;;;;;121.28;53.53;;;;;;;;;;5056058;28;20049;-69
2021/12/03 15:00:10;;;;;;;104.97;50.03;;;;;;;;;;5057321;28;20487;-69
2021/12/03 15:08:39;;;;;;;98.10;45.78;;;;;;;;;;5044250;28;20029;-69
2021/12/03 15:24:36;;;;;;;69.97;26.92;;;;;;;;;;5055873;28;20078;-69
2021/12/03 15:32:32;;;;;;;116.70;46.50;;;;;;;;;;5098744;28;20111;-70
2021/12/03 15:54:32;;;;;;;84.15;27.75;;;;;;;;;;5098619;28;20028;-68
2021/12/03 15:57:02;;;;;;;91.45;27.33;;;;;;;;;;5098171;28;20044;-70
2021/12/03 16:10:42;;;;;;;88.35;24.15;;;;;;;;;;5056239;28;20399;-68
2021/12/03 16:19:07;;;;;;;79.55;22.48;;;;;;;;;;5055794;28;20029;-69
2021/12/03 16:24:56;;;;;;;83.97;23.88;;;;;;;;;;5056129;28;20099;-69
2021/12/03 16:54:16;;;;;;;96.80;22.83;;;;;;;;;;5055512;28;20021;-71
2021/12/03 16:56:53;;;;;;;113.65;23.58;;;;;;;;;;5055011;28;20085;-69
2021/12/03 16:59:22;;;;;;;103.78;21.63;;;;;;;;;;5038328;28;20107;-68
2021/12/03 17:23:32;;;;;;;121.30;19.17;;;;;;;;;;5097246;28;20035;-69
2021/12/03 17:50:37;;;;;;;96.45;19.50;;;;;;;;;;5054324;28;20388;-69
2021/12/03 17:58:32;;;;;;;96.63;20.42;;;;;;;;;;4994670;28;20046;-69
2021/12/03 18:01:08;;;;;;;114.57;21.60;;;;;;;;;;4995183;28;20065;-69
2021/12/03 18:17:08;;;;;;;114.95;22.95;;;;;;;;;;4994650;28;20040;-69
2021/12/03 18:52:26;;;;;;;102.30;23.52;;;;;;;;;;5102543;28;20099;-67
2021/12/03 18:57:25;;;;;;;114.68;26.65;;;;;;;;;;5102357;28;20101;-67
2021/12/03 18:59:56;;;;;;;112.85;24.38;;;;;;;;;;5102170;28;20085;-68
2021/12/03 19:02:25;;;;;;;103.38;25.25;;;;;;;;;;5102037;28;20024;-67
2021/12/03 19:05:01;;;;;;;112.72;25.42;;;;;;;;;;5100920;28;20073;-68
2021/12/03 19:07:39;;;;;;;117.97;25.05;;;;;;;;;;5102201;28;20016;-68
2021/12/03 19:10:12;;;;;;;114.75;23.88;;;;;;;;;;5102249;28;20077;-68
2021/12/03 19:12:43;;;;;;;107.57;25.20;;;;;;;;;;5102307;28;20294;-69
2021/12/03 19:15:12;;;;;;;103.18;24.60;;;;;;;;;;5102295;28;20043;-68
2021/12/03 19:17:42;;;;;;;114.55;24.20;;;;;;;;;;5102109;28;20329;-68
2021/12/03 19:20:14;;;;;;;112.60;25.40;;;;;;;;;;5102207;28;20035;-67
2021/12/03 19:22:42;;;;;;;116.22;25.83;;;;;;;;;;5102143;28;20408;-67
2021/12/03 19:25:10;;;;;;;122.72;26.13;;;;;;;;;;5100970;28;20064;-68
2021/12/03 19:27:38;;;;;;;113.03;24.50;;;;;;;;;;5102108;28;20099;-68
2021/12/03 19:30:06;;;;;;;111.28;26.70;;;;;;;;;;5101942;28;20042;-68
2021/12/03 19:32:33;;;;;;;107.50;25.38;;;;;;;;;;5102142;28;20040;-68
2021/12/03 19:35:01;;;;;;;116.93;26.45;;;;;;;;;;5102045;28;20068;-68
2021/12/03 19:37:29;;;;;;;113.03;24.25;;;;;;;;;;5100757;28;20116;-68
2021/12/03 19:39:59;;;;;;;96.30;23.98;;;;;;;;;;5101798;28;20073;-68
2021/12/03 19:42:37;;;;;;;115.25;24.52;;;;;;;;;;5099660;28;20028;-68
2021/12/03 19:45:07;;;;;;;116.07;25.67;;;;;;;;;;5098657;28;20111;-68
2021/12/03 19:47:56;;;;;;;112.53;25.23;;;;;;;;;;5098692;28;20028;-68
2021/12/03 19:50:41;;;;;;;94.43;23.52;;;;;;;;;;5097642;28;20020;-68
2021/12/03 19:53:26;;;;;;;107.03;25.55;;;;;;;;;;5098579;28;20098;-68
2021/12/03 19:55:52;;;;;;;117.53;26.02;;;;;;;;;;5098358;28;20420;-68
2021/12/03 19:58:20;;;;;;;100.65;23.80;;;;;;;;;;5098443;28;20039;-68
2021/12/03 20:00:50;;;;;;;110.38;24.27;;;;;;;;;;5098330;28;20016;-68
2021/12/03 20:03:18;;;;;;;101.00;24.42;;;;;;;;;;5097070;28;20326;-68
2021/12/03 20:05:45;;;;;;;138.98;27.58;;;;;;;;;;5098082;28;20049;-68
2021/12/03 20:08:13;;;;;;;103.50;25.58;;;;;;;;;;5096890;28;20058;-68
2021/12/03 20:10:43;;;;;;;96.10;25.02;;;;;;;;;;5098327;28;20436;-68
2021/12/03 20:13:11;;;;;;;114.43;24.45;;;;;;;;;;5098256;28;20020;-68
2021/12/03 20:18:35;;;;;;;134.68;25.55;;;;;;;;;;5098087;28;20055;-68
2021/12/03 20:21:05;;;;;;;119.82;28.67;;;;;;;;;;5098094;28;20028;-68
2021/12/03 20:31:21;;;;;;;164.13;46.42;;;;;;;;;;5098019;28;20020;-68
2021/12/03 20:36:37;;;;;;;166.25;45.05;;;;;;;;;;5097634;28;20028;-68
2021/12/03 20:39:14;;;;;;;138.80;42.25;;;;;;;;;;5097634;28;20035;-68
2021/12/03 20:41:51;;;;;;;154.48;41.65;;;;;;;;;;5097655;28;20066;-68
2021/12/03 21:08:56;;;;;;;128.00;34.67;;;;;;;;;;5055120;28;20345;-68
2021/12/03 21:11:32;;;;;;;133.60;35.92;;;;;;;;;;5038212;28;20025;-68
2021/12/03 21:14:03;;;;;;;130.05;33.05;;;;;;;;;;5054679;28;20343;-68
2021/12/03 21:16:58;;;;;;;124.65;30.38;;;;;;;;;;5054883;28;20029;-69
2021/12/03 21:21:59;;;;;;;129.38;28.63;;;;;;;;;;5054739;28;20541;-68
2021/12/03 21:24:36;;;;;;;143.52;28.75;;;;;;;;;;5054579;28;20064;-68
2021/12/03 21:27:31;;;;;;;142.52;28.15;;;;;;;;;;5054639;28;20444;-68
2021/12/03 21:43:34;;;;;;;140.85;32.05;;;;;;;;;;5054245;28;20040;-68
2021/12/03 21:46:01;;;;;;;109.90;27.80;;;;;;;;;;5054194;28;20114;-69
2021/12/03 21:48:29;;;;;;;108.93;26.75;;;;;;;;;;5054166;28;20032;-67
2021/12/03 21:50:56;;;;;;;120.63;27.85;;;;;;;;;;5054285;28;20033;-67
2021/12/03 21:53:23;;;;;;;107.75;27.50;;;;;;;;;;5038371;28;20500;-67
2021/12/03 21:55:50;;;;;;;100.40;26.85;;;;;;;;;;5053844;28;20499;-68
2021/12/03 21:58:17;;;;;;;121.72;28.48;;;;;;;;;;5054158;28;20041;-68
2021/12/03 22:00:45;;;;;;;109.47;26.88;;;;;;;;;;5054119;28;20113;-68
2021/12/03 22:03:12;;;;;;;115.93;27.60;;;;;;;;;;5054050;28;20021;-68
2021/12/03 22:05:40;;;;;;;110.88;29.63;;;;;;;;;;5053224;28;20025;-67
2021/12/03 22:08:10;;;;;;;115.88;28.15;;;;;;;;;;5053952;28;20460;-68
2021/12/03 22:10:40;;;;;;;113.65;28.70;;;;;;;;;;5053991;28;20091;-67
2021/12/03 22:13:08;;;;;;;104.05;27.63;;;;;;;;;;5053845;28;20025;-67
2021/12/03 22:15:36;;;;;;;112.00;29.77;;;;;;;;;;5053821;28;20036;-68
2021/12/03 22:18:04;;;;;;;105.00;28.15;;;;;;;;;;5054047;28;20079;-67
2021/12/03 22:20:31;;;;;;;110.80;30.45;;;;;;;;;;5054724;28;20116;-68
2021/12/03 22:22:59;;;;;;;122.40;30.17;;;;;;;;;;5055669;28;20049;-68
2021/12/03 22:25:27;;;;;;;102.13;29.05;;;;;;;;;;5055634;28;20060;-68
2021/12/03 22:27:54;;;;;;;123.75;28.98;;;;;;;;;;5055776;28;20021;-68
2021/12/03 22:30:26;;;;;;;122.18;29.58;;;;;;;;;;5055689;28;20120;-68
2021/12/03 22:32:54;;;;;;;116.47;28.85;;;;;;;;;;5054613;28;20104;-71
2021/12/03 22:35:22;;;;;;;109.10;28.02;;;;;;;;;;5055715;28;20052;-69
2021/12/03 22:37:49;;;;;;;97.53;28.05;;;;;;;;;;5054513;28;20112;-70
2021/12/03 22:40:17;;;;;;;127.70;27.58;;;;;;;;;;5055543;28;20025;-71
2021/12/03 22:42:45;;;;;;;106.63;27.90;;;;;;;;;;5055600;28;20021;-72
2021/12/03 22:45:16;;;;;;;118.25;29.38;;;;;;;;;;5054723;28;20112;-71
2021/12/03 22:47:55;;;;;;;103.78;29.92;;;;;;;;;;5055499;28;20021;-72
2021/12/03 22:50:44;;;;;;;117.43;29.88;;;;;;;;;;5055578;28;20105;-71
2021/12/03 22:53:12;;;;;;;112.90;28.63;;;;;;;;;;5055331;28;20044;-71
2021/12/03 22:55:39;;;;;;;112.10;28.92;;;;;;;;;;5054285;28;20032;-69
2021/12/03 22:58:09;;;;;;;119.32;26.70;;;;;;;;;;5074320;28;20448;-71
2021/12/03 23:00:47;;;;;;;112.88;26.48;;;;;;;;;;5075303;28;20321;-69
2021/12/03 23:03:15;;;;;;;93.40;25.15;;;;;;;;;;5075370;28;20028;-69
2021/12/03 23:05:43;;;;;;;99.82;27.10;;;;;;;;;;5075182;28;20421;-68
2021/12/03 23:08:10;;;;;;;102.05;26.10;;;;;;;;;;5075304;28;20021;-68
2021/12/03 23:10:38;;;;;;;100.88;25.92;;;;;;;;;;5075181;28;20464;-68
2021/12/03 23:13:05;;;;;;;122.05;29.10;;;;;;;;;;5075204;28;20137;-67
2021/12/03 23:15:33;;;;;;;111.57;33.05;;;;;;;;;;5075183;28;20373;-68
2021/12/03 23:18:01;;;;;;;110.45;35.33;;;;;;;;;;5077482;28;20587;-67